Time;durP1;ratioP1;P1;durP2;ratioP2;P2;SDS_P1;SDS_P2;PMS_P1;PMS_P2;Temp;Humidity;BMP_temperature;BMP_pressure;BME280_temperature;BME280_humidity;BME280_pressure;Samples;Min_cycle;Max_cycle;Signal;HPM_P1;HPM_P2
2022/07/14 00:03:29;;;;;;;2.55;1.37;;;;;;;24.32;54.31;100100.95;2834033;83;21028;-58
2022/07/14 00:07:30;;;;;;;2.87;1.50;;;;;;;24.22;54.57;100100.09;2822789;84;21022;-58
2022/07/14 00:11:32;;;;;;;3.08;1.25;;;;;;;24.10;55.07;100099.97;2809210;84;21051;-58
2022/07/14 00:15:33;;;;;;;2.80;1.42;;;;;;;24.03;55.71;100093.77;2821403;84;21035;-58
2022/07/14 00:20:09;;;;;;;1.45;1.05;;;;;;;23.92;56.22;100102.06;2830796;84;20988;-58
2022/07/14 00:24:11;;;;;;;2.85;1.15;;;;;;;23.86;56.65;100098.84;2750602;85;21027;-59
2022/07/14 00:28:13;;;;;;;2.02;1.10;;;;;;;23.75;56.89;100108.52;2773886;84;21026;-58
2022/07/14 00:32:14;;;;;;;3.40;1.40;;;;;;;23.66;57.27;100101.69;2840378;82;20980;-58
2022/07/14 00:36:15;;;;;;;2.40;1.42;;;;;;;23.60;57.37;100105.28;2810691;84;21046;-58
2022/07/14 00:40:17;;;;;;;3.10;1.67;;;;;;;23.53;57.81;100108.84;2793327;85;20980;-58
2022/07/14 00:44:18;;;;;;;3.72;1.37;;;;;;;23.50;57.98;100113.34;2825213;84;21019;-58
2022/07/14 00:48:20;;;;;;;2.52;1.87;;;;;;;23.47;58.13;100107.51;2785344;83;21035;-58
2022/07/14 00:52:23;;;;;;;4.33;1.57;;;;;;;23.32;58.78;100102.36;2818478;82;21019;-59
2022/07/14 00:56:37;;;;;;;3.22;2.25;;;;;;;23.29;58.73;100109.07;2793818;84;21084;-58
2022/07/14 01:00:39;;;;;;;2.25;1.67;;;;;;;23.17;59.58;100111.55;2816953;83;21146;-58
2022/07/14 01:04:41;;;;;;;2.00;1.60;;;;;;;23.06;60.12;100113.05;2809740;83;21067;-58
2022/07/14 01:08:42;;;;;;;6.62;2.25;;;;;;;23.05;59.85;100117.34;2795299;83;21554;-58
2022/07/14 01:12:47;;;;;;;10.68;2.45;;;;;;;23.22;59.47;100114.99;2842413;83;20974;-58
2022/07/14 01:16:55;;;;;;;4.90;1.60;;;;;;;23.24;59.25;100104.75;2791176;84;20984;-59
2022/07/14 01:20:56;;;;;;;3.67;1.90;;;;;;;23.31;58.98;100119.69;2847520;83;21025;-58
2022/07/14 01:24:57;;;;;;;6.22;2.95;;;;;;;23.36;58.57;100130.22;2822680;82;21025;-58
2022/07/14 01:28:58;;;;;;;2.67;2.35;;;;;;;23.35;58.61;100136.69;2815668;84;21062;-58
2022/07/14 01:32:59;;;;;;;5.83;3.17;;;;;;;23.36;58.67;100139.72;2819120;84;20985;-58
2022/07/14 01:37:05;;;;;;;4.00;2.30;;;;;;;23.33;58.60;100150.16;2823927;83;21033;-58
2022/07/14 01:41:06;;;;;;;;;;;;;;;23.21;58.94;100156.23;2807520;83;21069;-58
2022/07/14 01:45:09;;;;;;;3.47;2.27;;;;;;;23.04;59.23;100161.80;2819950;84;20533;-58
2022/07/14 01:49:12;;;;;;;5.00;2.00;;;;;;;22.97;59.26;100163.97;2788357;84;21022;-59
2022/07/14 01:53:14;;;;;;;5.28;2.42;;;;;;;22.97;59.39;100166.69;2737478;84;21037;-59
2022/07/14 01:57:16;;;;;;;3.22;2.25;;;;;;;22.96;59.42;100177.23;2838823;83;21033;-58
2022/07/14 02:05:38;;;;;;;7.12;1.95;;;;;;;22.86;59.83;100167.85;2829091;84;21028;-58
2022/07/14 02:14:01;;;;;;;2.55;1.85;;;;;;;22.68;60.30;100167.45;2796121;84;21023;-58
2022/07/14 02:18:02;;;;;;;3.20;2.08;;;;;;;22.57;60.83;100165.36;2831912;82;21032;-58
2022/07/14 02:22:04;;;;;;;2.55;2.33;;;;;;;22.53;61.24;100164.11;2824035;83;21068;-58
2022/07/14 02:26:13;;;;;;;2.20;1.87;;;;;;;22.51;61.42;100165.69;2827163;84;21027;-58
2022/07/14 02:30:46;;;;;;;5.08;1.92;;;;;;;22.46;61.82;100172.20;2800456;84;21043;-58
2022/07/14 02:34:47;;;;;;;3.52;2.52;;;;;;;22.36;62.33;100171.80;2831590;82;21016;-59
2022/07/14 02:38:49;;;;;;;4.17;2.37;;;;;;;22.24;62.85;100178.34;2814120;82;21034;-58
2022/07/14 02:42:50;;;;;;;1.60;1.47;;;;;;;21.90;64.45;100189.60;2768287;84;21057;-59
2022/07/14 02:46:51;;;;;;;1.80;1.70;;;;;;;21.77;64.68;100195.27;2812399;84;20956;-59
2022/07/14 02:51:03;;;;;;;2.02;1.57;;;;;;;21.82;64.52;100196.87;2831918;84;20980;-58
2022/07/14 02:55:06;;;;;;;3.17;2.37;;;;;;;21.83;65.26;100205.31;2814647;84;20944;-58
2022/07/14 02:59:08;;;;;;;7.28;2.52;;;;;;;21.91;64.76;100212.93;2815025;84;21050;-59
2022/07/14 03:03:12;;;;;;;3.80;2.27;;;;;;;21.87;65.09;100214.38;2759030;83;21071;-59
2022/07/14 03:07:13;;;;;;;4.95;2.72;;;;;;;21.93;65.29;100217.12;2758459;86;21026;-58
2022/07/14 03:11:23;;;;;;;9.18;4.05;;;;;;;21.67;66.86;100223.25;2774014;85;21109;-58
2022/07/14 03:15:25;;;;;;;5.85;4.05;;;;;;;21.62;66.25;100224.34;2817708;83;21009;-58
2022/07/14 03:19:26;;;;;;;5.03;3.30;;;;;;;21.58;66.48;100224.41;2807041;84;21032;-58
2022/07/14 03:23:28;;;;;;;6.03;3.92;;;;;;;21.54;66.89;100230.22;2740569;83;20945;-59
2022/07/14 03:27:29;;;;;;;12.25;3.33;;;;;;;21.56;66.88;100238.16;2847815;81;20968;-59
2022/07/14 03:31:31;;;;;;;7.42;4.05;;;;;;;21.53;66.83;100245.33;2783471;83;20975;-59
2022/07/14 03:35:39;;;;;;;3.90;2.80;;;;;;;21.63;66.69;100244.96;2831446;83;21035;-59
2022/07/14 03:39:41;;;;;;;4.37;3.20;;;;;;;21.67;66.78;100253.02;2828582;82;21046;-58
2022/07/14 03:43:43;;;;;;;5.72;3.22;;;;;;;21.64;67.51;100263.69;2758066;85;21038;-59
2022/07/14 03:47:55;;;;;;;4.47;3.52;;;;;;;21.69;66.73;100262.59;2835223;82;21356;-58
2022/07/14 03:51:57;;;;;;;11.93;4.22;;;;;;;21.73;67.03;100268.45;2823186;83;20996;-58
2022/07/14 03:55:59;;;;;;;6.83;3.50;;;;;;;21.69;67.02;100263.95;2801442;83;21015;-58
2022/07/14 04:00:07;;;;;;;9.43;2.98;;;;;;;21.77;66.70;100264.30;2809926;84;21027;-57
2022/07/14 04:04:08;;;;;;;3.50;2.62;;;;;;;21.82;66.82;100265.91;2826928;82;21083;-58
2022/07/14 04:08:10;;;;;;;6.00;3.10;;;;;;;21.86;67.73;100276.34;2825699;84;21012;-59
2022/07/14 04:16:19;;;;;;;9.28;4.40;;;;;;;21.85;67.71;100292.27;2727329;83;21055;-88
2022/07/14 04:20:20;;;;;;;8.40;3.55;;;;;;;21.90;68.05;100295.20;2750820;85;20992;-90
2022/07/14 04:24:23;;;;;;;12.80;4.92;;;;;;;21.98;67.81;100292.31;2702394;86;21019;-92
2022/07/14 04:28:25;;;;;;;12.35;4.75;;;;;;;22.08;68.08;100289.23;2776880;84;20992;-91
2022/07/14 04:32:27;;;;;;;6.72;4.85;;;;;;;22.21;67.94;100283.88;2745669;85;21574;-91
2022/07/14 04:36:28;;;;;;;4.95;3.92;;;;;;;22.34;67.95;100291.20;2683531;86;21075;-88
2022/07/14 04:40:30;;;;;;;8.45;4.20;;;;;;;22.53;67.80;100289.64;2715189;85;21058;-92
2022/07/14 04:44:31;;;;;;;9.00;4.12;;;;;;;22.72;67.36;100289.03;2753294;85;21055;-93
2022/07/14 04:52:01;;;;;;;2.70;2.45;;;;;;;22.88;66.72;100281.86;2680894;85;21022;-93
2022/07/14 04:52:36;;;;;;;3.87;3.35;;;;;;;23.06;66.05;100286.65;2720277;85;21015;-92
2022/07/14 04:56:37;;;;;;;4.65;3.55;;;;;;;23.19;65.90;100288.55;2769294;83;21023;-93
2022/07/14 05:00:39;;;;;;;5.28;3.37;;;;;;;23.39;65.16;100289.09;2776840;85;20991;-93
2022/07/14 05:04:41;;;;;;;7.03;3.42;;;;;;;23.91;64.41;100289.17;2703245;85;20992;-92
2022/07/14 05:08:42;;;;;;;8.25;2.62;;;;;;;24.05;63.66;100287.26;2772061;85;21075;-91
2022/07/14 05:12:44;;;;;;;4.55;2.65;;;;;;;24.41;62.65;100289.61;2747359;84;21000;-92
2022/07/14 05:16:48;;;;;;;3.67;3.22;;;;;;;24.46;62.29;100289.78;2703528;86;21050;-92
2022/07/14 05:20:49;;;;;;;6.78;3.33;;;;;;;24.61;62.57;100296.27;2749235;84;21075;-92
2022/07/14 05:24:51;;;;;;;4.25;3.22;;;;;;;24.58;62.01;100302.16;2742995;84;21014;-90
2022/07/14 05:28:52;;;;;;;3.67;2.95;;;;;;;24.51;62.56;100306.27;2760046;85;21023;-87
2022/07/14 05:32:58;;;;;;;5.28;3.87;;;;;;;24.41;62.31;100302.66;2665788;87;21537;-91
2022/07/14 05:37:01;;;;;;;4.15;3.40;;;;;;;24.38;62.59;100303.95;2762824;83;21059;-93
2022/07/14 05:41:03;;;;;;;4.33;3.20;;;;;;;24.36;62.55;100314.17;2744589;85;21024;-91
2022/07/14 05:45:06;;;;;;;3.52;3.22;;;;;;;24.33;63.08;100306.45;2740837;85;21550;-93
2022/07/14 05:49:07;;;;;;;5.55;4.15;;;;;;;24.28;63.28;100309.00;2693517;86;21008;-92
2022/07/14 05:53:09;;;;;;;4.97;3.08;;;;;;;24.25;63.73;100305.36;2756452;84;21441;-91
2022/07/14 05:57:13;;;;;;;4.67;4.22;;;;;;;24.32;63.35;100311.59;2753025;84;21027;-89
2022/07/14 06:01:16;;;;;;;4.10;3.75;;;;;;;24.50;62.97;100303.23;2735361;84;21553;-91
2022/07/14 06:05:18;;;;;;;3.47;3.02;;;;;;;24.66;62.69;100293.20;2733349;84;21663;-93
2022/07/14 06:09:19;;;;;;;5.65;3.70;;;;;;;24.87;62.69;100293.11;2736729;83;21664;-92
2022/07/14 06:13:21;;;;;;;4.35;3.40;;;;;;;24.95;62.15;100289.56;2743257;84;21017;-93
2022/07/14 06:17:22;;;;;;;5.33;3.92;;;;;;;25.22;62.42;100289.36;2777798;84;21499;-93
2022/07/14 06:21:24;;;;;;;5.53;4.53;;;;;;;25.61;60.67;100295.20;2772725;83;21554;-91
2022/07/14 06:25:26;;;;;;;5.17;3.80;;;;;;;25.93;59.91;100295.03;2740840;85;21055;-91
2022/07/14 06:29:27;;;;;;;5.97;3.90;;;;;;;26.16;58.85;100300.34;2668054;88;20996;-90
2022/07/14 06:33:29;;;;;;;6.00;4.15;;;;;;;26.50;59.15;100298.00;2664876;88;21035;-93
2022/07/14 06:37:31;;;;;;;9.38;4.55;;;;;;;26.65;58.46;100304.42;2733084;85;21059;-93
2022/07/14 06:41:32;;;;;;;3.87;2.52;;;;;;;26.75;57.13;100294.30;2667627;86;21036;-91
2022/07/14 06:45:34;;;;;;;5.25;3.85;;;;;;;26.92;57.40;100300.78;2667038;86;21085;-93
2022/07/14 06:49:36;;;;;;;5.90;4.08;;;;;;;27.05;57.24;100290.70;2690263;86;21048;-91
2022/07/14 06:53:38;;;;;;;6.75;3.77;;;;;;;27.33;56.67;100279.62;2759284;85;20990;-93
2022/07/14 06:57:39;;;;;;;3.30;2.98;;;;;;;27.66;55.91;100276.81;2756547;84;21016;-92
2022/07/14 07:01:40;;;;;;;6.67;4.05;;;;;;;27.70;55.02;100284.82;2781029;83;20988;-91
2022/07/14 07:10:02;;;;;;;4.28;3.52;;;;;;;27.30;55.89;100274.09;2738926;84;21629;-93
2022/07/14 07:14:04;;;;;;;15.75;3.42;;;;;;;27.37;56.13;100269.88;2805160;83;21063;-93
2022/07/14 07:18:08;;;;;;;6.05;3.35;;;;;;;27.37;56.13;100266.60;2777938;84;29717;-92
2022/07/14 07:22:10;;;;;;;4.72;4.03;;;;;;;27.32;56.45;100272.51;2797456;83;21008;-93
2022/07/14 07:26:11;;;;;;;6.08;4.37;;;;;;;27.45;55.79;100270.87;2798558;84;21094;-93
2022/07/14 07:30:13;;;;;;;4.47;4.03;;;;;;;27.64;56.07;100283.06;2800918;84;21023;-94
2022/07/14 07:34:14;;;;;;;8.90;3.83;;;;;;;27.89;55.49;100277.83;2789911;84;21542;-92
2022/07/14 07:38:18;;;;;;;3.20;2.80;;;;;;;27.71;55.90;100281.05;2791698;84;20959;-94
2022/07/14 07:42:19;;;;;;;4.62;3.70;;;;;;;27.50;55.79;100285.19;2799647;84;21067;-91
2022/07/14 07:46:21;;;;;;;8.10;3.85;;;;;;;27.32;56.84;100282.06;2810073;84;21028;-92
2022/07/14 07:50:22;;;;;;;6.42;4.20;;;;;;;27.11;57.14;100281.55;2807910;83;21004;-92
2022/07/14 07:54:24;;;;;;;4.70;3.25;;;;;;;27.43;57.74;100274.38;2788599;83;21057;-93
2022/07/14 07:58:26;;;;;;;5.58;3.45;;;;;;;27.79;55.88;100267.00;2795027;83;20983;-92
2022/07/14 08:02:27;;;;;;;4.50;3.58;;;;;;;27.88;56.01;100263.87;2770764;84;21020;-94
2022/07/14 08:06:29;;;;;;;4.05;3.17;;;;;;;27.90;55.50;100260.36;2766221;83;20983;-87
2022/07/14 08:10:30;;;;;;;5.53;4.40;;;;;;;28.20;55.63;100258.83;2784242;84;21033;-93
2022/07/14 08:14:50;;;;;;;5.37;4.15;;;;;;;28.30;55.13;100269.66;2777799;84;20973;-93
2022/07/14 08:18:52;;;;;;;6.28;3.98;;;;;;;28.11;55.00;100259.43;2798799;83;21033;-94
2022/07/14 08:22:54;;;;;;;3.40;2.83;;;;;;;28.12;55.32;100263.83;2816238;83;20976;-92
2022/07/14 08:26:57;;;;;;;3.05;2.75;;;;;;;28.21;54.84;100263.74;2832344;82;21492;-94
2022/07/14 08:30:59;;;;;;;5.33;3.52;;;;;;;27.72;54.79;100256.75;2806506;83;21044;-87
2022/07/14 08:35:02;;;;;;;4.53;3.05;;;;;;;27.41;56.41;100253.83;2836269;83;21010;-93
2022/07/14 08:39:05;;;;;;;5.92;4.10;;;;;;;27.44;56.89;100248.73;2828546;82;21513;-92
2022/07/14 08:43:08;;;;;;;4.17;2.85;;;;;;;27.51;56.99;100245.39;2796886;83;21471;-93
2022/07/14 08:47:09;;;;;;;11.43;4.05;;;;;;;27.68;56.77;100244.62;2737567;84;20991;-91
2022/07/14 08:51:11;;;;;;;5.55;3.77;;;;;;;27.83;56.06;100230.98;2724520;86;21018;-92
2022/07/14 08:55:16;;;;;;;9.53;3.25;;;;;;;27.91;55.82;100240.19;2830091;83;21047;-92
2022/07/14 08:59:18;;;;;;;7.72;3.83;;;;;;;28.12;55.33;100237.84;2843211;83;20970;-90
2022/07/14 09:03:19;;;;;;;4.28;3.40;;;;;;;28.12;55.27;100236.48;2794104;83;21001;-92
2022/07/14 09:07:38;;;;;;;5.20;3.60;;;;;;;28.25;56.02;100234.02;2765547;84;21001;-93
2022/07/14 09:11:58;;;;;;;6.75;3.20;;;;;;;28.49;55.21;100240.17;2810005;83;21015;-92
2022/07/14 09:16:21;;;;;;;5.08;3.47;;;;;;;28.49;55.21;100240.17;2827259;83;21141;-94
2022/07/14 09:20:27;;;;;;;3.95;3.25;;;;;;;28.39;55.20;100238.63;2812646;83;21042;-92
2022/07/14 09:24:29;;;;;;;3.65;3.35;;;;;;;28.40;55.47;100221.14;2793538;83;21040;-92
2022/07/14 09:28:31;;;;;;;3.85;3.50;;;;;;;28.13;55.80;100216.27;2800429;83;21070;-92
2022/07/14 09:32:56;;;;;;;10.32;5.05;;;;;;;28.13;55.80;100216.27;2814567;83;21038;-92
2022/07/14 09:37:17;;;;;;;5.47;3.58;;;;;;;27.92;56.01;100205.77;2799028;83;21034;-92
2022/07/14 09:41:20;;;;;;;15.88;4.42;;;;;;;27.71;57.00;100210.02;2792643;83;21002;-92
2022/07/14 09:45:27;;;;;;;9.40;3.77;;;;;;;27.71;56.61;100215.47;2822544;83;21088;-90
2022/07/14 09:49:33;;;;;;;3.80;3.50;;;;;;;27.79;56.57;100213.71;2815028;83;21034;-87
2022/07/14 09:53:36;;;;;;;4.58;4.17;;;;;;;27.71;56.43;100208.64;2805600;83;20941;-90
2022/07/14 09:57:39;;;;;;;4.28;3.87;;;;;;;27.54;56.96;100207.73;2770926;84;21063;-89
2022/07/14 10:01:41;;;;;;;7.25;3.92;;;;;;;27.53;57.24;100205.52;2749813;85;21006;-94
2022/07/14 10:05:43;;;;;;;4.10;3.70;;;;;;;27.49;56.91;100202.41;2711524;85;21067;-92
2022/07/14 10:09:50;;;;;;;7.30;4.70;;;;;;;27.50;57.59;100206.80;2810658;83;21031;-90
2022/07/14 10:13:51;;;;;;;7.12;3.80;;;;;;;27.60;56.45;100204.84;2810304;83;21489;-93
2022/07/14 10:17:56;;;;;;;4.53;3.98;;;;;;;27.78;55.99;100198.91;2777191;83;21176;-93
2022/07/14 10:22:00;;;;;;;4.87;4.47;;;;;;;27.88;57.07;100199.13;2785961;82;21104;-93
2022/07/14 10:26:01;;;;;;;6.03;4.87;;;;;;;28.04;57.25;100193.96;2790425;84;21022;-93
2022/07/14 10:30:04;;;;;;;5.87;3.98;;;;;;;27.74;55.96;100189.55;2771895;84;21015;-94
2022/07/14 10:34:57;;;;;;;36.85;9.28;;;;;;;27.75;56.75;100191.20;2776394;84;21039;-94
2022/07/14 10:39:24;;;;;;;27.40;6.30;;;;;;;27.85;56.36;100189.21;2775554;84;21048;-92
2022/07/14 10:43:31;;;;;;;5.08;4.55;;;;;;;27.51;56.53;100193.49;2786645;82;20992;-92
2022/07/14 10:47:51;;;;;;;5.62;3.55;;;;;;;27.43;57.34;100180.16;2774857;82;21530;-92
2022/07/14 10:51:53;;;;;;;6.17;4.00;;;;;;;27.46;57.50;100182.41;2796636;81;21051;-92
2022/07/14 10:55:55;;;;;;;4.83;3.75;;;;;;;27.45;56.51;100173.11;2778447;84;21062;-91
2022/07/14 10:59:56;;;;;;;5.35;3.58;;;;;;;27.44;56.30;100170.90;2785135;84;21065;-93
2022/07/14 11:03:58;;;;;;;8.30;4.62;;;;;;;27.96;55.83;100136.94;2780272;84;21075;-93
2022/07/14 11:08:09;;;;;;;4.12;3.00;;;;;;;27.96;55.83;100136.94;2730649;83;21054;-93
2022/07/14 11:12:13;;;;;;;5.08;4.58;;;;;;;28.51;54.71;100148.58;2784820;84;21043;-93
2022/07/14 11:16:15;;;;;;;6.00;4.70;;;;;;;28.69;53.19;100149.93;2769214;84;21015;-94
2022/07/14 11:20:20;;;;;;;7.80;4.85;;;;;;;28.96;52.88;100136.95;2740172;85;21574;-92
2022/07/14 11:24:32;;;;;;;4.85;4.20;;;;;;;29.20;52.65;100123.31;2721933;84;20992;-91
2022/07/14 11:28:48;;;;;;;4.58;4.00;;;;;;;29.20;52.65;100123.31;2771725;85;20980;-93
2022/07/14 11:33:07;;;;;;;6.97;5.00;;;;;;;29.11;52.51;100119.38;2804545;83;21347;-95
2022/07/14 11:37:10;;;;;;;6.20;4.20;;;;;;;29.10;51.55;100117.72;2786931;83;21050;-92
2022/07/14 11:41:13;;;;;;;19.55;6.33;;;;;;;29.08;52.31;100117.12;2804258;83;21553;-92
2022/07/14 11:45:20;;;;;;;4.80;4.40;;;;;;;28.85;52.77;100130.51;2713932;85;21006;-86
2022/07/14 11:49:22;;;;;;;5.37;3.25;;;;;;;28.93;52.15;100125.44;2793639;84;21075;-91
2022/07/14 11:53:25;;;;;;;6.05;3.27;;;;;;;28.87;51.74;100118.20;2815257;84;20997;-94
2022/07/14 11:57:27;;;;;;;3.10;2.80;;;;;;;28.81;52.52;100104.17;2796964;84;21071;-93
2022/07/14 12:01:38;;;;;;;4.05;3.05;;;;;;;28.63;51.96;100108.00;2760839;83;21046;-88
2022/07/14 12:05:39;;;;;;;8.10;3.50;;;;;;;28.76;52.49;100099.97;2779944;84;21601;-93
2022/07/14 12:09:40;;;;;;;5.33;2.90;;;;;;;28.96;51.09;100097.27;2757255;84;21109;-94
2022/07/14 12:13:51;;;;;;;5.17;3.12;;;;;;;28.92;51.48;100103.77;2783148;80;21545;-91
2022/07/14 12:17:55;;;;;;;4.50;3.67;;;;;;;28.98;51.56;100095.91;2811996;83;20995;-95
2022/07/14 12:22:01;;;;;;;59.95;12.60;;;;;;;29.09;51.31;100088.69;2760121;84;21027;-93
2022/07/14 12:26:13;;;;;;;10.08;2.98;;;;;;;29.09;50.53;100090.05;2744639;85;21011;-93
2022/07/14 12:30:08;;;;;;;2.80;2.52;;;;;;;29.33;51.83;100083.75;2755865;84;21011;-86
2022/07/14 12:34:11;;;;;;;3.83;2.08;;;;;;;29.90;51.07;100075.33;2778395;84;21526;-90
2022/07/14 12:38:15;;;;;;;3.25;2.90;;;;;;;29.86;48.74;100067.31;2750236;84;21050;-91
2022/07/14 12:42:16;;;;;;;2.00;1.80;;;;;;;29.57;49.26;100077.19;2749291;84;21039;-94
2022/07/14 12:46:22;;;;;;;3.40;2.45;;;;;;;29.71;48.95;100052.41;2727683;85;21031;-93
2022/07/14 12:50:26;;;;;;;7.12;3.05;;;;;;;29.42;48.49;100062.23;2741512;86;20968;-86
2022/07/14 12:54:34;;;;;;;15.32;5.10;;;;;;;29.38;49.04;100063.81;2710976;86;21104;-89
2022/07/14 12:58:36;;;;;;;3.47;2.60;;;;;;;29.76;48.92;100047.49;2700307;86;21068;-90
2022/07/14 13:02:44;;;;;;;10.10;3.58;;;;;;;29.99;48.76;100046.33;2703290;86;21035;-85
2022/07/14 13:06:46;;;;;;;6.12;4.37;;;;;;;29.72;48.32;100051.84;2705789;86;21044;-88
2022/07/14 13:10:57;;;;;;;4.90;3.35;;;;;;;29.77;48.83;100043.13;2731504;82;21007;-92
2022/07/14 13:15:06;;;;;;;21.62;4.08;;;;;;;29.67;48.72;100050.44;2693647;87;21047;-90
2022/07/14 13:19:23;;;;;;;8.48;3.45;;;;;;;29.62;48.24;100041.61;2826809;79;21044;-92
2022/07/14 13:23:38;;;;;;;4.55;4.15;;;;;;;29.59;48.68;100032.55;2837329;82;20971;-91
2022/07/14 13:27:40;;;;;;;4.20;3.60;;;;;;;29.81;46.78;100013.83;2836269;81;21659;-91
2022/07/14 13:31:42;;;;;;;5.75;3.85;;;;;;;29.97;46.82;100006.02;2781230;79;21049;-88
2022/07/14 13:48:10;;;;;;;7.10;3.45;;;;;;;29.94;43.10;100006.55;2711046;84;21091;-95
2022/07/14 13:52:11;;;;;;;;;;;;;;;30.18;43.45;99986.47;2699948;86;21042;-92
2022/07/14 13:56:13;;;;;;;33.53;9.73;;;;;;;30.01;43.97;99997.54;2702820;86;20107;-90
2022/07/14 14:00:15;;;;;;;6.53;2.72;;;;;;;29.67;44.42;100002.48;2686323;87;21067;-92
2022/07/14 14:04:17;;;;;;;16.45;6.05;;;;;;;29.30;45.59;100000.73;2700981;86;21016;-93
2022/07/14 14:08:23;;;;;;;2.98;2.52;;;;;;;29.14;46.23;99999.75;2725164;86;21003;-88
2022/07/14 15:02:01;;;;;;;100.87;24.10;;;;;;;28.20;50.31;99985.93;2950810;80;21196;-73
2022/07/14 15:06:03;;;;;;;6.10;3.62;;;;;;;28.26;50.27;99999.95;2923569;80;20938;-66
2022/07/14 15:10:08;;;;;;;3.45;2.60;;;;;;;28.15;50.26;99987.20;2949781;80;20938;-60
2022/07/14 15:14:10;;;;;;;5.53;2.75;;;;;;;28.07;50.22;99966.02;2930236;79;20970;-62
2022/07/14 15:18:11;;;;;;;2.50;2.30;;;;;;;27.85;50.00;99953.67;2940120;80;20955;-60
2022/07/14 15:22:15;;;;;;;2.70;2.17;;;;;;;27.61;49.78;99953.00;2934838;79;20990;-63
2022/07/14 15:26:16;;;;;;;2.65;2.45;;;;;;;27.42;50.05;99966.86;2958129;80;20947;-62
2022/07/14 15:30:18;;;;;;;2.25;1.92;;;;;;;27.20;50.00;99958.02;2909446;80;20949;-60
2022/07/14 15:34:20;;;;;;;3.12;2.50;;;;;;;26.72;50.29;99929.20;2926547;80;20943;-62
2022/07/14 15:38:22;;;;;;;3.12;2.83;;;;;;;26.89;50.98;99935.58;2959828;80;20959;-61
2022/07/14 15:42:25;;;;;;;16.05;6.05;;;;;;;26.60;50.98;99958.72;2983744;78;20986;-61
2022/07/14 15:46:27;;;;;;;5.30;3.62;;;;;;;26.59;51.20;99965.25;2969659;79;20931;-60
2022/07/14 15:50:40;;;;;;;6.45;3.37;;;;;;;26.44;52.35;99958.09;2989709;79;20994;-60
2022/07/14 15:54:41;;;;;;;5.70;4.28;;;;;;;26.37;53.12;99959.58;2985207;79;20966;-61
2022/07/14 15:58:42;;;;;;;8.18;3.30;;;;;;;26.19;54.35;99954.55;2998927;79;20939;-60
2022/07/14 16:02:44;;;;;;;6.50;3.52;;;;;;;25.82;56.94;99954.75;2927106;81;21012;-60
2022/07/14 16:06:48;;;;;;;9.38;3.42;;;;;;;25.57;58.21;99952.25;2920997;81;20967;-60
2022/07/14 16:10:49;;;;;;;5.37;3.47;;;;;;;25.40;59.07;99944.72;2956695;79;20997;-61
2022/07/14 16:14:59;;;;;;;13.62;7.00;;;;;;;25.24;59.43;99935.30;2972738;79;20951;-61
2022/07/14 16:19:00;;;;;;;11.05;4.35;;;;;;;25.13;59.84;99923.31;2926092;79;21021;-61
2022/07/14 16:23:03;;;;;;;5.28;3.65;;;;;;;25.19;59.06;99920.20;2917065;81;20955;-61
2022/07/14 16:27:05;;;;;;;5.28;3.95;;;;;;;25.19;59.43;99906.59;2933821;81;20974;-61
2022/07/14 16:31:07;;;;;;;3.95;3.22;;;;;;;25.17;60.34;99920.45;2934870;81;21007;-60
2022/07/14 16:35:10;;;;;;;10.30;4.90;;;;;;;25.11;60.83;99906.39;2949448;81;20962;-62
2022/07/14 16:43:22;;;;;;;17.37;6.67;;;;;;;25.13;61.42;99908.90;2852853;80;21057;-60
2022/07/14 16:47:24;;;;;;;20.12;4.35;;;;;;;25.04;61.65;99920.63;2809961;84;21507;-60
2022/07/14 16:51:26;;;;;;;3.92;3.12;;;;;;;24.90;61.42;99923.53;2809934;85;20982;-61
2022/07/14 16:55:47;;;;;;;20.55;3.52;;;;;;;24.79;61.20;99915.62;2809870;84;20966;-60
2022/07/14 16:59:51;;;;;;;9.70;3.67;;;;;;;24.79;62.03;99913.45;2810310;84;20939;-61
2022/07/14 17:03:52;;;;;;;12.60;3.75;;;;;;;24.65;63.26;99901.85;2800219;84;21037;-61
2022/07/14 17:08:00;;;;;;;8.75;4.17;;;;;;;24.45;64.33;99893.41;2811593;83;20978;-61
2022/07/14 17:12:01;;;;;;;4.15;3.62;;;;;;;24.29;66.05;99892.14;2810285;85;21029;-68
2022/07/14 17:16:20;;;;;;;4.95;2.98;;;;;;;24.13;66.89;99900.89;2805599;84;20968;-67
2022/07/14 17:20:21;;;;;;;5.75;3.47;;;;;;;23.95;67.86;99901.13;2737334;85;21104;-70
2022/07/14 17:24:22;;;;;;;6.08;3.45;;;;;;;23.84;69.14;99889.67;2809629;85;20958;-70
2022/07/14 17:28:25;;;;;;;7.35;3.15;;;;;;;23.70;71.17;99871.31;2806644;81;21030;-68
2022/07/14 17:32:26;;;;;;;4.17;3.77;;;;;;;23.56;71.97;99863.80;2810474;84;20958;-68
2022/07/14 17:36:28;;;;;;;4.00;3.17;;;;;;;23.36;72.13;99862.08;2824559;84;20962;-68
2022/07/14 17:40:29;;;;;;;8.08;4.05;;;;;;;23.41;70.88;99844.62;2809351;84;21018;-69
2022/07/14 17:44:31;;;;;;;7.45;4.20;;;;;;;23.37;71.17;99839.31;2813201;82;21002;-72
2022/07/14 17:48:32;;;;;;;5.17;3.40;;;;;;;23.34;72.32;99850.61;2838233;82;21000;-68
2022/07/14 17:52:56;;;;;;;9.10;4.17;;;;;;;23.14;74.87;99854.28;2849408;83;21034;-71
2022/07/14 17:56:59;;;;;;;10.30;5.10;;;;;;;22.80;79.42;99878.09;2796073;83;21072;-69
2022/07/14 18:01:39;;;;;;;6.37;4.28;;;;;;;22.51;80.27;99893.84;2750741;84;20955;-71
2022/07/14 18:05:42;;;;;;;8.58;4.22;;;;;;;22.26;83.04;99882.33;2830541;82;21002;-69
2022/07/14 18:09:45;;;;;;;10.75;4.67;;;;;;;22.22;82.66;99890.58;2842150;84;20998;-70
2022/07/14 18:13:47;;;;;;;5.67;4.17;;;;;;;22.25;82.02;99902.34;2815949;84;20963;-71
2022/07/14 18:18:13;;;;;;;6.35;4.37;;;;;;;22.26;83.22;99904.00;2842068;84;20970;-71
2022/07/14 18:22:14;;;;;;;;;;;;;;;22.26;82.97;99902.65;2802463;84;20980;-71
2022/07/14 18:26:32;;;;;;;5.55;4.35;;;;;;;22.27;83.20;99911.08;2842134;82;20109;-72
2022/07/14 18:30:34;;;;;;;6.40;5.40;;;;;;;22.26;83.00;99928.38;2781083;83;20978;-72
2022/07/14 18:35:32;;;;;;;6.25;5.40;;;;;;;22.18;84.63;99908.28;2785542;82;21042;-71
2022/07/14 18:39:33;;;;;;;5.40;4.58;;;;;;;21.99;84.22;99887.80;2790877;83;21018;-92
2022/07/14 18:43:35;;;;;;;7.40;5.00;;;;;;;21.91;84.94;99881.26;2782371;83;20982;-93
2022/07/14 18:47:37;;;;;;;8.68;5.35;;;;;;;21.87;83.93;99875.96;2750571;83;21033;-93
2022/07/14 18:51:40;;;;;;;7.42;5.75;;;;;;;21.90;84.15;99901.25;2789898;83;21068;-94
2022/07/14 18:55:41;;;;;;;9.35;6.08;;;;;;;21.86;84.17;99885.13;2788174;83;21353;-92
2022/07/14 18:59:43;;;;;;;13.50;5.85;;;;;;;21.89;83.68;99869.81;2800422;83;21479;-95
2022/07/14 19:03:46;;;;;;;8.78;5.67;;;;;;;21.96;83.49;99871.97;2784813;83;20959;-92
2022/07/14 19:07:55;;;;;;;7.08;5.60;;;;;;;21.96;83.37;99876.03;2753416;83;21054;-94
2022/07/14 19:11:57;;;;;;;8.75;6.40;;;;;;;21.90;84.11;99870.94;2799751;83;21002;-93
2022/07/14 19:16:00;;;;;;;15.10;6.37;;;;;;;21.80;84.11;99866.48;2793608;83;21002;-92
2022/07/14 19:20:03;;;;;;;6.78;5.70;;;;;;;21.71;84.75;99892.94;2780062;83;21078;-94
2022/07/14 19:24:05;;;;;;;8.48;6.17;;;;;;;21.56;85.37;99916.13;2811648;83;21096;-92
2022/07/14 19:28:09;;;;;;;9.08;6.20;;;;;;;21.32;87.17;99928.38;2818592;83;21010;-93
2022/07/14 19:32:11;;;;;;;6.97;6.37;;;;;;;21.22;87.49;99941.79;2711540;85;20974;-94
2022/07/14 19:36:14;;;;;;;8.53;6.05;;;;;;;21.07;88.14;99943.83;2791610;82;21034;-92
2022/07/14 19:40:19;;;;;;;6.78;5.58;;;;;;;21.06;88.12;99938.10;2757940;84;21010;-93
2022/07/14 19:44:23;;;;;;;8.28;5.95;;;;;;;21.06;88.24;99928.64;2702998;86;21027;-92
2022/07/14 19:48:31;;;;;;;5.45;4.90;;;;;;;21.06;88.02;99929.99;2758396;84;21022;-93
2022/07/14 19:52:38;;;;;;;6.45;5.87;;;;;;;21.04;88.00;99938.83;2749844;85;21069;-93
2022/07/14 19:56:40;;;;;;;9.10;6.33;;;;;;;20.96;88.02;99950.13;2731414;85;21030;-93
2022/07/14 20:00:44;;;;;;;7.62;5.70;;;;;;;20.89;88.42;99951.12;2737867;85;21073;-92
2022/07/14 20:04:46;;;;;;;9.33;6.10;;;;;;;20.82;88.04;99953.80;2749088;84;21026;-95
2022/07/14 20:08:48;;;;;;;7.92;5.85;;;;;;;20.77;88.09;99971.11;2748456;84;21029;-95
2022/07/14 20:49:02;;;;;;;6.65;5.95;;;;;;;20.25;90.20;99966.06;2879145;80;21042;-92
2022/07/14 20:53:04;;;;;;;15.93;7.10;;;;;;;20.16;90.05;99969.94;2810719;81;21018;-92
2022/07/14 20:57:06;;;;;;;8.65;6.15;;;;;;;19.75;92.54;99972.78;2847449;80;20987;-95
2022/07/14 21:01:08;;;;;;;10.43;7.05;;;;;;;19.54;92.55;99974.46;2832504;81;21074;-93